createdAt,value
2022-12-04T00:01:10.946Z,97349.34
2022-12-04T00:03:37.571Z,97355.31
2022-12-04T00:06:06.208Z,97348.09
2022-12-04T00:08:32.611Z,97332.69
2022-12-04T00:10:59.285Z,97337.88
2022-12-04T00:13:26.609Z,97321.63
2022-12-04T00:15:54.036Z,97305.00
2022-12-04T00:18:20.525Z,97318.88
2022-12-04T00:20:46.951Z,97304.78
2022-12-04T00:23:14.095Z,97318.31
2022-12-04T00:25:41.543Z,97310.97
2022-12-04T00:28:08.750Z,97298.66
2022-12-04T00:30:35.206Z,97314.03
2022-12-04T00:33:01.648Z,97308.63
2022-12-04T00:35:28.059Z,97318.38
2022-12-04T00:37:54.440Z,97291.00
2022-12-04T00:40:20.925Z,97292.63
2022-12-04T00:42:47.297Z,97297.75
2022-12-04T00:45:13.718Z,97269.66
2022-12-04T00:47:40.201Z,97297.97
2022-12-04T00:50:08.170Z,97281.84
2022-12-04T00:52:34.606Z,97273.66
2022-12-04T00:55:01.077Z,97279.16
2022-12-04T00:57:27.587Z,97268.34
2022-12-04T00:59:54.301Z,97290.88
2022-12-04T01:02:20.986Z,97268.22
2022-12-04T01:04:47.665Z,97280.31
2022-12-04T01:07:14.159Z,97282.53
2022-12-04T01:09:40.551Z,97276.28
2022-12-04T01:12:07.187Z,97271.28
2022-12-04T01:14:33.898Z,97271.78
2022-12-04T01:17:00.668Z,97281.34
2022-12-04T01:19:27.173Z,97282.16
2022-12-04T01:21:53.739Z,97284.50
2022-12-04T01:24:20.217Z,97281.09
2022-12-04T01:26:46.685Z,97285.94
2022-12-04T01:29:16.944Z,97290.94
2022-12-04T01:31:43.492Z,97284.06
2022-12-04T01:34:09.934Z,97282.41
2022-12-04T01:36:36.487Z,97273.66
2022-12-04T01:39:02.995Z,97256.16
2022-12-04T01:41:30.754Z,97273.06
2022-12-04T01:44:21.078Z,97282.66
2022-12-04T01:46:55.924Z,97279.34
2022-12-04T01:49:31.259Z,97252.28
2022-12-04T01:52:02.407Z,97268.25
2022-12-04T01:54:32.305Z,97268.03
2022-12-04T01:57:13.381Z,97256.41
2022-12-04T02:00:00.759Z,97259.28
2022-12-04T02:02:35.126Z,97247.69
2022-12-04T02:05:04.150Z,97260.13
2022-12-04T02:07:31.013Z,97256.69
2022-12-04T02:10:03.665Z,97255.31
2022-12-04T02:12:47.380Z,97232.94
2022-12-04T02:15:18.738Z,97212.63
2022-12-04T02:17:58.183Z,97245.75
2022-12-04T02:20:25.602Z,97237.81
2022-12-04T02:23:29.821Z,97234.75
2022-12-04T02:26:05.634Z,97236.16
2022-12-04T02:28:39.329Z,97239.72
2022-12-04T02:31:12.337Z,97248.44
2022-12-04T02:33:47.943Z,97248.44
2022-12-04T02:36:20.795Z,97248.44
2022-12-04T02:39:05.432Z,97244.19
2022-12-04T02:41:42.423Z,97241.34
2022-12-04T02:44:20.425Z,97237.81
2022-12-04T02:46:51.120Z,97226.31
2022-12-04T02:49:40.754Z,97238.50
2022-12-04T02:52:12.991Z,97228.09
2022-12-04T02:54:45.798Z,97236.75
2022-12-04T02:57:19.440Z,97233.06
2022-12-04T02:59:47.768Z,97230.25
2022-12-04T03:02:39.526Z,97223.66
2022-12-04T03:05:12.995Z,97223.28
2022-12-04T03:08:02.750Z,97223.16
2022-12-04T03:10:45.844Z,97198.00
2022-12-04T03:13:18.950Z,97221.50
2022-12-04T03:15:54.949Z,97218.97
2022-12-04T03:18:30.732Z,97215.97
2022-12-04T03:21:05.048Z,97212.31
2022-12-04T03:23:39.847Z,97209.50
2022-12-04T03:26:25.524Z,97200.28
2022-12-04T03:29:06.751Z,97200.88
2022-12-04T03:32:01.494Z,97203.59
2022-12-04T03:34:35.359Z,97212.31
2022-12-04T03:37:10.454Z,97188.81
2022-12-04T03:39:55.369Z,97209.81
2022-12-04T03:43:01.841Z,97228.84
2022-12-04T03:45:42.122Z,97214.09
2022-12-04T03:48:24.091Z,97187.75
2022-12-04T03:51:00.515Z,97201.06
2022-12-04T03:53:39.368Z,97185.25
2022-12-04T03:56:14.240Z,97199.94
2022-12-04T03:58:46.763Z,97196.97
2022-12-04T04:01:15.470Z,97193.19
2022-12-04T04:03:48.583Z,97190.38
2022-12-04T04:06:20.646Z,97170.50
2022-12-04T04:08:51.924Z,97191.41
2022-12-04T04:11:24.541Z,97171.22
2022-12-04T04:14:13.641Z,97185.97
2022-12-04T04:17:05.203Z,97160.13
2022-12-04T04:19:54.140Z,97157.53
2022-12-04T04:22:43.555Z,97184.34
2022-12-04T04:25:24.292Z,97155.84
2022-12-04T04:27:55.089Z,97159.88
2022-12-04T04:30:22.124Z,97152.56
2022-12-04T04:32:51.432Z,97158.13
2022-12-04T04:35:39.790Z,97136.16
2022-12-04T04:38:27.662Z,97121.53
2022-12-04T04:41:10.032Z,97115.50
2022-12-04T04:44:05.508Z,97106.50
2022-12-04T04:46:40.667Z,97104.16
2022-12-04T04:49:10.999Z,97101.44
2022-12-04T04:51:38.296Z,97085.03
2022-12-04T04:54:08.612Z,97063.53
2022-12-04T04:56:42.106Z,97069.91
2022-12-04T04:59:08.718Z,97050.56
2022-12-04T05:01:35.887Z,97043.69
2022-12-04T05:04:05.007Z,97012.75
2022-12-04T05:06:31.935Z,97016.53
2022-12-04T05:08:59.115Z,97006.38
2022-12-04T05:11:25.677Z,96981.25
2022-12-04T05:13:52.744Z,97000.22
2022-12-04T05:16:19.291Z,96974.97
2022-12-04T05:19:05.748Z,96984.16
2022-12-04T05:21:32.687Z,96969.16
2022-12-04T05:23:59.549Z,96959.41
2022-12-04T05:26:26.304Z,96969.06
2022-12-04T05:28:52.720Z,96950.66
2022-12-04T05:31:19.350Z,96974.91
2022-12-04T05:33:45.816Z,96972.13
2022-12-04T05:36:13.379Z,96969.16
2022-12-04T05:38:40.329Z,96951.06
2022-12-04T05:41:07.340Z,96949.66
2022-12-04T05:43:34.325Z,96927.00
2022-12-04T05:46:03.090Z,96951.91
2022-12-04T05:48:29.736Z,96940.44
2022-12-04T05:50:56.358Z,96924.84
2022-12-04T05:53:23.388Z,96895.88
2022-12-04T05:55:57.721Z,96917.06
2022-12-04T05:58:24.857Z,96895.59
2022-12-04T06:00:51.406Z,96893.34
2022-12-04T06:03:18.012Z,96896.03
2022-12-04T06:05:44.920Z,96881.38
2022-12-04T06:08:11.704Z,96885.78
2022-12-04T06:10:38.269Z,96882.78
2022-12-04T06:13:06.475Z,96879.50
2022-12-04T06:15:40.232Z,96875.25
2022-12-04T06:18:08.253Z,96869.94
2022-12-04T06:20:35.205Z,96855.94
2022-12-04T06:23:01.628Z,96847.50
2022-12-04T06:25:28.662Z,96868.03
2022-12-04T06:27:55.087Z,96865.31
2022-12-04T06:30:22.708Z,96856.81
2022-12-04T06:32:49.355Z,96864.22
2022-12-04T06:35:16.253Z,96871.91
2022-12-04T06:37:42.666Z,96867.50
2022-12-04T06:40:09.560Z,96871.91
2022-12-04T06:42:36.003Z,96868.94
2022-12-04T06:45:02.404Z,96876.13
2022-12-04T06:47:28.846Z,96871.66
2022-12-04T06:49:55.518Z,96876.59
2022-12-04T06:52:22.148Z,96885.34
2022-12-04T06:54:48.571Z,96855.41
2022-12-04T06:57:18.262Z,96869.50
2022-12-04T06:59:44.667Z,96871.13
2022-12-04T07:02:11.215Z,96874.25
2022-12-04T07:04:37.645Z,96875.16
2022-12-04T07:07:04.055Z,96866.72
2022-12-04T07:09:30.534Z,96878.25
2022-12-04T07:11:57.062Z,96864.03
2022-12-04T07:14:23.539Z,96841.47
2022-12-04T07:16:50.047Z,96862.16
2022-12-04T07:19:16.639Z,96861.44
2022-12-04T07:21:43.731Z,96864.94
2022-12-04T07:24:15.783Z,96859.66
2022-12-04T07:26:42.713Z,96872.81
2022-12-04T07:29:10.586Z,96877.75
2022-12-04T07:31:37.712Z,96857.44
2022-12-04T07:34:04.199Z,96867.34
2022-12-04T07:36:30.772Z,96862.16
2022-12-04T07:38:57.798Z,96841.84
2022-12-04T07:41:24.384Z,96873.94
2022-12-04T07:43:50.947Z,96866.97
2022-12-04T07:46:23.601Z,96858.09
2022-12-04T07:48:52.219Z,96885.16
2022-12-04T07:51:21.721Z,96863.28
2022-12-04T07:53:49.602Z,96863.63
2022-12-04T07:56:16.768Z,96859.81
2022-12-04T07:58:43.607Z,96869.34
2022-12-04T08:01:21.938Z,96875.53
2022-12-04T08:03:50.498Z,96862.81
2022-12-04T08:06:19.036Z,96875.97
2022-12-04T08:08:46.249Z,96869.44
2022-12-04T08:11:15.477Z,96862.53
2022-12-04T08:13:42.096Z,96883.31
2022-12-04T08:16:10.381Z,96879.91
2022-12-04T08:18:37.238Z,96903.88
2022-12-04T08:21:12.625Z,96895.50
2022-12-04T08:23:41.261Z,96896.19
2022-12-04T08:26:08.588Z,96885.41
2022-12-04T08:28:36.045Z,96890.16
2022-12-04T08:31:08.208Z,96898.69
2022-12-04T08:33:35.323Z,96892.91
2022-12-04T08:36:02.281Z,96883.88
2022-12-04T08:38:28.665Z,96877.59
2022-12-04T08:40:58.963Z,96878.44
2022-12-04T08:43:25.345Z,96871.78
2022-12-04T08:46:12.343Z,96862.63
2022-12-04T08:48:39.526Z,96873.31
2022-12-04T08:51:08.209Z,96872.47
2022-12-04T08:53:36.564Z,96852.31
2022-12-04T08:56:03.990Z,96872.22
2022-12-04T08:58:30.544Z,96865.03
2022-12-04T09:00:57.089Z,96894.97
2022-12-04T09:03:29.195Z,96880.81
2022-12-04T09:05:59.165Z,96894.72
2022-12-04T09:08:25.636Z,96891.69
2022-12-04T09:10:52.093Z,96881.53
2022-12-04T09:13:18.507Z,96889.69
2022-12-04T09:15:45.026Z,96893.06
2022-12-04T09:18:11.820Z,96882.41
2022-12-04T09:20:38.441Z,96898.19
2022-12-04T09:23:05.806Z,96909.09
2022-12-04T09:25:35.953Z,96904.34
2022-12-04T09:28:02.380Z,96904.59
2022-12-04T09:30:28.797Z,96908.41
2022-12-04T09:32:55.184Z,96885.06
2022-12-04T09:35:21.575Z,96911.72
2022-12-04T09:37:47.963Z,96912.22
2022-12-04T09:40:35.424Z,96908.41
2022-12-04T09:43:20.480Z,96900.44
2022-12-04T09:45:51.663Z,96916.03
2022-12-04T09:48:21.441Z,96913.88
2022-12-04T09:50:50.088Z,96920.91
2022-12-04T09:53:30.024Z,96934.88
2022-12-04T09:56:04.516Z,96918.94
2022-12-04T09:58:41.029Z,96907.78
2022-12-04T10:01:35.778Z,96932.78
2022-12-04T10:04:06.143Z,96943.75
2022-12-04T10:06:42.375Z,96894.28
2022-12-04T10:09:28.334Z,96947.63
2022-12-04T10:12:23.275Z,96922.38
2022-12-04T10:15:25.831Z,96938.59
2022-12-04T10:18:10.619Z,96938.34
2022-12-04T10:20:52.837Z,96938.09
2022-12-04T10:23:57.988Z,96943.53
2022-12-04T10:26:30.374Z,96952.81
2022-12-04T10:29:01.069Z,96950.44
2022-12-04T10:31:29.586Z,96972.94
2022-12-04T10:34:02.172Z,96957.41
2022-12-04T10:36:32.763Z,96976.50
2022-12-04T10:39:04.039Z,96967.34
2022-12-04T10:42:05.351Z,96955.38
2022-12-04T10:44:31.980Z,96954.75
2022-12-04T10:47:01.683Z,96962.19
2022-12-04T10:49:34.485Z,96942.94
2022-12-04T10:52:01.495Z,96945.34
2022-12-04T10:54:33.659Z,96969.56
2022-12-04T10:57:04.180Z,96965.63
2022-12-04T10:59:31.782Z,96979.13
2022-12-04T11:02:11.146Z,96976.44
2022-12-04T11:04:38.014Z,96974.50
2022-12-04T11:07:21.143Z,96990.38
2022-12-04T11:10:32.611Z,96974.25
2022-12-04T11:13:14.099Z,96975.22
2022-12-04T11:15:52.065Z,96983.53
2022-12-04T11:18:28.778Z,96985.88
2022-12-04T11:21:04.486Z,96990.13
2022-12-04T11:23:43.553Z,96989.19
2022-12-04T11:26:10.963Z,96955.19
2022-12-04T11:28:42.171Z,96980.41
2022-12-04T11:31:15.728Z,96997.00
2022-12-04T11:33:54.696Z,97001.91
2022-12-04T11:36:30.244Z,97002.88
2022-12-04T11:39:11.286Z,97006.69
2022-12-04T11:41:38.533Z,97015.66
2022-12-04T11:44:24.876Z,97010.81
2022-12-04T11:46:53.956Z,97020.56
2022-12-04T11:49:22.749Z,97009.53
2022-12-04T11:52:13.743Z,97012.13
2022-12-04T11:54:56.457Z,96980.13
2022-12-04T11:57:39.787Z,96993.81
2022-12-04T12:00:18.347Z,96993.03
2022-12-04T12:02:44.826Z,96991.84
2022-12-04T12:05:17.443Z,96988.75
2022-12-04T12:08:03.346Z,96994.69
2022-12-04T12:10:47.272Z,96968.19
2022-12-04T12:13:28.942Z,96982.81
2022-12-04T12:16:11.958Z,96978.06
2022-12-04T12:19:09.721Z,96987.59
2022-12-04T12:21:43.252Z,96990.56
2022-12-04T12:24:29.325Z,97002.31
2022-12-04T12:27:17.704Z,96989.75
2022-12-04T12:30:17.873Z,96982.00
2022-12-04T12:33:02.789Z,96991.91
2022-12-04T12:35:46.912Z,96987.19
2022-12-04T12:38:19.600Z,96970.66
2022-12-04T12:40:53.158Z,96958.16
2022-12-04T12:43:33.333Z,96974.97
2022-12-04T12:46:25.844Z,96970.66
2022-12-04T12:49:17.543Z,96976.78
2022-12-04T12:51:54.553Z,96973.44
2022-12-04T12:54:39.942Z,96979.03
2022-12-04T12:57:17.596Z,96970.13
2022-12-04T13:00:00.941Z,96945.19
2022-12-04T13:02:37.234Z,96946.38
2022-12-04T13:05:10.847Z,96936.47
2022-12-04T13:07:55.703Z,96954.66
2022-12-04T13:10:32.823Z,96947.44
2022-12-04T13:13:19.096Z,96941.81
2022-12-04T13:15:56.336Z,96947.50
2022-12-04T13:18:48.273Z,96931.44
2022-12-04T13:21:28.216Z,96924.78
2022-12-04T13:24:17.709Z,96911.97
2022-12-04T13:26:53.852Z,96910.84
2022-12-04T13:29:41.950Z,96910.34
2022-12-04T13:32:28.810Z,96892.91
2022-12-04T13:35:11.681Z,96900.94
2022-12-04T13:37:50.656Z,96876.84
2022-12-04T13:40:31.321Z,96871.94
2022-12-04T13:43:18.740Z,96885.94
2022-12-04T13:45:47.459Z,96879.03
2022-12-04T13:48:13.975Z,96906.22
2022-12-04T13:50:40.993Z,96893.50
2022-12-04T13:53:35.106Z,96901.03
2022-12-04T13:56:06.164Z,96907.44
2022-12-04T13:58:36.188Z,96880.47
2022-12-04T14:01:30.881Z,96898.69
2022-12-04T14:03:59.656Z,96919.94
2022-12-04T14:06:33.955Z,96934.72
2022-12-04T14:09:04.747Z,96939.63
2022-12-04T14:11:44.082Z,96947.25
2022-12-04T14:14:47.868Z,96949.84
2022-12-04T14:17:25.911Z,96952.69
2022-12-04T14:19:55.251Z,96950.53
2022-12-04T14:22:35.476Z,96949.72
2022-12-04T14:25:07.411Z,96951.03
2022-12-04T14:27:47.075Z,96957.41
2022-12-04T14:30:28.637Z,96934.75
2022-12-04T14:33:12.236Z,96964.50
2022-12-04T14:35:49.724Z,96959.81
2022-12-04T14:38:20.600Z,96942.53
2022-12-04T14:40:51.917Z,96953.91
2022-12-04T14:43:21.628Z,96935.06
2022-12-04T14:45:58.223Z,96940.91
2022-12-04T14:48:30.715Z,96949.16
2022-12-04T14:51:29.581Z,96944.66
2022-12-04T14:54:39.764Z,96927.28
2022-12-04T14:57:09.293Z,96940.28
2022-12-04T14:59:45.508Z,96927.72
2022-12-04T15:02:17.327Z,96950.09
2022-12-04T15:04:46.516Z,96944.22
2022-12-04T15:07:26.187Z,96946.91
2022-12-04T15:10:13.696Z,96944.47
2022-12-04T15:12:54.223Z,96929.97
2022-12-04T15:15:26.385Z,96936.25
2022-12-04T15:18:01.975Z,96903.09
2022-12-04T15:20:38.669Z,96945.03
2022-12-04T15:23:05.814Z,96938.19
2022-12-04T15:25:43.263Z,96938.75
2022-12-04T15:28:31.299Z,96923.41
2022-12-04T15:31:00.603Z,96911.03
2022-12-04T15:33:35.271Z,96927.38
2022-12-04T15:36:09.491Z,96920.56
2022-12-04T15:38:36.741Z,96905.00
2022-12-04T15:41:03.268Z,96916.78
2022-12-04T15:43:40.814Z,96929.03
2022-12-04T15:46:31.238Z,96921.00
2022-12-04T15:49:18.660Z,96932.06
2022-12-04T15:51:47.145Z,96928.91
2022-12-04T15:54:25.992Z,96927.38
2022-12-04T15:57:03.505Z,96922.56
2022-12-04T15:59:30.926Z,96920.66
2022-12-04T16:02:05.526Z,96941.22
2022-12-04T16:04:35.645Z,96919.53
2022-12-04T16:07:02.527Z,96933.56
2022-12-04T16:09:29.018Z,96923.16
2022-12-04T16:12:01.634Z,96910.84
2022-12-04T16:14:28.384Z,96928.09
2022-12-04T16:17:00.056Z,96896.22
2022-12-04T16:19:36.300Z,96911.09
2022-12-04T16:22:09.384Z,96915.78
2022-12-04T16:24:35.780Z,96897.31
2022-12-04T16:27:04.589Z,96924.78
2022-12-04T16:29:31.480Z,96922.63
2022-12-04T16:32:03.052Z,96913.38
2022-12-04T16:34:30.562Z,96894.41
2022-12-04T16:36:57.153Z,96908.16
2022-12-04T16:39:23.650Z,96902.72
2022-12-04T16:41:50.116Z,96876.88
2022-12-04T16:44:17.227Z,96907.00
2022-12-04T16:46:44.585Z,96896.09
2022-12-04T16:49:12.694Z,96911.03
2022-12-04T16:51:45.821Z,96897.19
2022-12-04T16:54:13.467Z,96895.59
2022-12-04T16:56:39.998Z,96864.78
2022-12-04T16:59:11.558Z,96898.25
2022-12-04T17:01:42.777Z,96912.50
2022-12-04T17:04:09.515Z,96898.84
2022-12-04T17:06:36.263Z,96879.19
2022-12-04T17:09:02.862Z,96906.00
2022-12-04T17:11:29.364Z,96894.72
2022-12-04T17:13:55.954Z,96905.56
2022-12-04T17:16:24.597Z,96905.38
2022-12-04T17:18:51.920Z,96905.13
2022-12-04T17:21:18.424Z,96904.09
2022-12-04T17:23:45.000Z,96910.38
2022-12-04T17:26:14.434Z,96912.81
2022-12-04T17:28:41.375Z,96906.50
2022-12-04T17:31:27.300Z,96899.63
2022-12-04T17:33:53.990Z,96902.00
2022-12-04T17:36:23.487Z,96909.25
2022-12-04T17:38:54.569Z,96897.50
2022-12-04T17:41:21.165Z,96907.34
2022-12-04T17:43:47.761Z,96884.81
2022-12-04T17:46:18.862Z,96901.56
2022-12-04T17:48:45.455Z,96886.19
2022-12-04T17:51:15.141Z,96866.69
2022-12-04T17:53:42.491Z,96899.13
2022-12-04T17:56:12.485Z,96908.66
2022-12-04T17:58:38.902Z,96895.66
2022-12-04T18:01:11.100Z,96903.28
2022-12-04T18:03:38.411Z,96905.63
2022-12-04T18:06:17.357Z,96882.88
2022-12-04T18:08:49.846Z,96897.56
2022-12-04T18:11:21.699Z,96912.22
2022-12-04T18:13:49.255Z,96900.44
2022-12-04T18:16:15.853Z,96881.00
2022-12-04T18:18:46.640Z,96891.59
2022-12-04T18:21:14.673Z,96890.66
2022-12-04T18:23:45.680Z,96883.34
2022-12-04T18:26:15.825Z,96890.13
2022-12-04T18:28:42.474Z,96887.91
2022-12-04T18:31:09.835Z,96878.22
2022-12-04T18:33:38.405Z,96879.59
2022-12-04T18:36:05.686Z,96886.81
2022-12-04T18:38:32.549Z,96857.88
2022-12-04T18:41:06.686Z,96875.97
2022-12-04T18:43:34.575Z,96876.41
2022-12-04T18:46:07.267Z,96870.94
2022-12-04T18:48:35.137Z,96887.66
2022-12-04T18:51:01.687Z,96883.28
2022-12-04T18:53:28.199Z,96885.44
2022-12-04T18:55:55.389Z,96872.59
2022-12-04T18:58:22.914Z,96875.31
2022-12-04T19:00:51.730Z,96883.53
2022-12-04T19:03:18.474Z,96884.94
2022-12-04T19:05:49.112Z,96883.78
2022-12-04T19:08:15.912Z,96886.38
2022-12-04T19:10:42.489Z,96844.59
2022-12-04T19:13:08.980Z,96881.63
2022-12-04T19:15:42.003Z,96879.41
2022-12-04T19:18:08.583Z,96878.91
2022-12-04T19:20:35.100Z,96867.09
2022-12-04T19:23:01.555Z,96853.28
2022-12-04T19:25:28.065Z,96854.25
2022-12-04T19:27:55.526Z,96882.50
2022-12-04T19:30:22.051Z,96875.63
2022-12-04T19:32:49.361Z,96891.25
2022-12-04T19:35:15.885Z,96888.66
2022-12-04T19:37:44.781Z,96886.03
2022-12-04T19:40:14.865Z,96886.19
2022-12-04T19:42:41.385Z,96888.22
2022-12-04T19:45:08.208Z,96883.59
2022-12-04T19:47:34.704Z,96863.97
2022-12-04T19:50:01.115Z,96893.72
2022-12-04T19:52:27.665Z,96897.22
2022-12-04T19:54:54.130Z,96895.78
2022-12-04T19:57:20.624Z,96905.03
2022-12-04T19:59:47.115Z,96883.50
2022-12-04T20:02:14.129Z,96874.72
2022-12-04T20:04:41.022Z,96883.25
2022-12-04T20:07:07.454Z,96868.16
2022-12-04T20:09:34.345Z,96887.97
2022-12-04T20:12:00.973Z,96889.22
2022-12-04T20:14:28.098Z,96886.03
2022-12-04T20:16:54.650Z,96896.72
2022-12-04T20:19:21.165Z,96882.22
2022-12-04T20:21:48.190Z,96896.84
2022-12-04T20:24:16.595Z,96900.28
2022-12-04T20:26:44.844Z,96902.72
2022-12-04T20:29:13.984Z,96884.03
2022-12-04T20:31:44.261Z,96892.19
2022-12-04T20:34:14.355Z,96892.31
2022-12-04T20:36:43.904Z,96901.31
2022-12-04T20:39:11.833Z,96904.16
2022-12-04T20:41:38.811Z,96893.75
2022-12-04T20:44:07.033Z,96892.31
2022-12-04T20:46:35.888Z,96901.75
2022-12-04T20:49:06.358Z,96902.97
2022-12-04T20:51:35.400Z,96902.00
2022-12-04T20:54:02.357Z,96892.31
2022-12-04T20:56:34.339Z,96893.63
2022-12-04T20:59:06.519Z,96875.25
2022-12-04T21:01:33.978Z,96908.72
2022-12-04T21:04:01.864Z,96893.91
2022-12-04T21:06:34.820Z,96897.22
2022-12-04T21:09:06.043Z,96905.41
2022-12-04T21:11:39.234Z,96901.75
2022-12-04T21:14:32.358Z,96898.00
2022-12-04T21:16:58.987Z,96909.78
2022-12-04T21:19:26.097Z,96898.88
2022-12-04T21:21:53.326Z,96906.81
2022-12-04T21:24:22.171Z,96886.63
2022-12-04T21:26:48.752Z,96895.69
2022-12-04T21:29:15.633Z,96904.34
2022-12-04T21:31:42.458Z,96893.69
2022-12-04T21:34:11.629Z,96896.28
2022-12-04T21:36:38.202Z,96883.28
2022-12-04T21:39:05.032Z,96886.56
2022-12-04T21:41:50.182Z,96891.22
2022-12-04T21:44:18.356Z,96891.75
2022-12-04T21:46:45.441Z,96890.81
2022-12-04T21:49:13.602Z,96886.56
2022-12-04T21:51:56.722Z,96887.72
2022-12-04T21:54:23.564Z,96896.03
2022-12-04T21:56:50.755Z,96898.13
2022-12-04T21:59:17.283Z,96888.41
2022-12-04T22:01:44.259Z,96890.03
2022-12-04T22:04:10.721Z,96890.84
2022-12-04T22:06:38.021Z,96886.47
2022-12-04T22:09:07.845Z,96900.31
2022-12-04T22:11:34.447Z,96894.53
2022-12-04T22:14:00.856Z,96883.88
2022-12-04T22:16:30.523Z,96889.34
2022-12-04T22:18:58.704Z,96889.06
2022-12-04T22:21:26.265Z,96889.59
2022-12-04T22:24:01.432Z,96881.44
2022-12-04T22:26:29.614Z,96890.03
2022-12-04T22:28:56.581Z,96891.81
2022-12-04T22:31:25.852Z,96892.63
2022-12-04T22:33:54.424Z,96888.81
2022-12-04T22:36:23.947Z,96895.69
2022-12-04T22:39:09.929Z,96888.00
2022-12-04T22:41:37.346Z,96881.28
2022-12-04T22:44:03.958Z,96870.00
2022-12-04T22:46:30.507Z,96882.50
2022-12-04T22:48:58.639Z,96896.63
2022-12-04T22:51:25.296Z,96895.94
2022-12-04T22:53:54.126Z,96888.81
2022-12-04T22:56:29.456Z,96884.13
2022-12-04T22:58:58.243Z,96874.97
2022-12-04T23:01:28.300Z,96895.13
2022-12-04T23:03:55.457Z,96895.22
2022-12-04T23:06:24.061Z,96886.06
2022-12-04T23:08:54.764Z,96878.41
2022-12-04T23:11:22.778Z,96870.47
2022-12-04T23:13:51.225Z,96854.06
2022-12-04T23:16:20.493Z,96821.16
2022-12-04T23:18:47.408Z,96825.28
2022-12-04T23:21:15.149Z,96813.41
2022-12-04T23:23:44.274Z,96824.34
2022-12-04T23:26:15.328Z,96820.97
2022-12-04T23:28:42.424Z,96832.31
2022-12-04T23:31:10.896Z,96823.94
2022-12-04T23:33:38.544Z,96815.13
2022-12-04T23:36:07.676Z,96823.41
2022-12-04T23:38:36.307Z,96812.94
2022-12-04T23:41:14.564Z,96818.47
2022-12-04T23:43:41.652Z,96815.19
2022-12-04T23:46:11.612Z,96801.19
2022-12-04T23:48:40.149Z,96807.78
2022-12-04T23:51:08.486Z,96765.28
2022-12-04T23:53:35.428Z,96796.81
2022-12-04T23:56:09.863Z,96799.25
2022-12-04T23:58:37.209Z,96796.66
